Lihue, HI (96766)

4:48 AM HST on February 24, 2017 (GMT -1000)
Uluko | | Change Station

Elev 187 ft 21.96 °N, 159.37 °W | Updated 28 seconds ago

Partly Cloudy
Partly Cloudy
64.9 °F
Feels Like 64.9 °F
N
0.9
Wind Variable Wind from NW
Gusts 3.0 mph

Today
High -- | Low -- °F
--% Chance of Precip.
Yesterday
High -- | Low -- °F
Precip. -- in
Pressure 30.09 in
Visibility 10.0 miles
Clouds Few 4300 ft
Dew Point 59 °F
Humidity 80%
Rainfall 0.00 in
Snow Depth Not available.
7:01 AM 6:39 PM
Waning Crescent, 5% visible
METAR PHLI 241353Z 03011KT 10SM FEW043 21/13 A3010 RMK AO2 SLP189 T02060133
Pressure 30.09 in
Visibility 10.0 miles
Clouds Few 4300 ft
Dew Point 59 °F
Humidity 80%
Rainfall 0.00 in
Snow Depth Not available.
7:01 AM 6:39 PM
Waning Crescent, 5% visible
METAR PHLI 241353Z 03011KT 10SM FEW043 21/13 A3010 RMK AO2 SLP189 T02060133

Get Your Daily Forecast Email!

Thanks for signing up!

Be on the lookout for a verification email in your inbox.

You'll start receiving the daily forecast at 8 AM.

×

10-Day Weather Forecast

Almanac

Astronomy

Feb. 24, 2017 Rise Set
Actual Time
Civil Twilight
Nautical Twilight
Astronomical Twilight
Moon
Length of Visible Light
Length of Day
Tomorrow will be .
, % of the Moon is Illuminated

Today's Extremes

State Highs State Lows

Community

WunderPhotos

Upload Photos

1,962,540 photos uploaded!

WunderBlog® & News

Nearby

Air Quality

  Air Quality AQ Index Pollutant
Not available.

Snow Depth

Station Depth Elevation

Earthquake Activity

City Distance Mag. Time & Date
Minimum magnitude displayed is 2.5.

Coastal Water Temperatures

Place Temperature

Stations

Nearby Weather Stations

Station Location Temp. Windchill Dew Point Humidity Wind Precip. Elev Updated Type
                   

Watches & Warnings

There are currently no watches in effect.